< < Back
Terminal Aerodrome Forecast


Current Version              Previous Versions:   1  2  3  4  5  6  7  8  9  

Terminal Aerodrome Forecast

139
FTUS44 KHUN 212320
TAFHSV
TAF
KHSV 212320Z 2200/2224 VRB03KT P6SM SKC
     FM221500 28005KT P6SM FEW035 SCT250=

Latest METAR

191
SAUS80 KWBC 220200 RRB
MTRHSV
METAR KHSV 220153Z 00000KT 10SM CLR 28/23 A3009 RMK AO2 SLP181
T02780233


USA.gov is the U.S. government's official web portal to all federal, state and local government web resources and services.